Time;durP1;ratioP1;P1;durP2;ratioP2;P2;SDS_P1;SDS_P2;PMS_P1;PMS_P2;Temp;Humidity;BMP_temperature;BMP_pressure;BME280_temperature;BME280_humidity;BME280_pressure;Samples;Min_cycle;Max_cycle;Signal;HPM_P1;HPM_P2
2023/07/22 00:02:26;;;;;;;;;;;;;;;21.08;100.00;60892.56;4824091;28;20392;-90
2023/07/22 00:05:05;;;;;;;;;;;;;;;-145.06;100.00;60892.56;4834337;28;19918;-90
2023/07/22 00:07:44;;;;;;;;;;;;;;;-145.06;100.00;60892.56;4824643;28;19914;-92
2023/07/22 00:10:23;;;;;;;;;;;;;;;-145.06;100.00;60892.56;4848372;28;20324;-90
2023/07/22 00:13:02;;;;;;;;;;;;;;;-145.06;100.00;60892.56;4820925;28;19913;-91
2023/07/22 00:15:41;;;;;;;;;;;;;;;-145.06;100.00;60892.56;4836225;28;19917;-90
2023/07/22 00:18:20;;;;;;;;;;;;;;;-145.06;100.00;60892.56;4822790;28;19914;-90
2023/07/22 00:20:59;;;;;;;;;;;;;;;-145.06;100.00;60892.56;4849130;28;19922;-91
2023/07/22 00:23:38;;;;;;;;;;;;;;;-145.06;100.00;60892.56;4837341;28;20447;-91
2023/07/22 00:26:17;;;;;;;;;;;;;;;-145.06;100.00;60892.56;4841816;28;19922;-91
2023/07/22 00:28:56;;;;;;;;;;;;;;;-145.06;100.00;60892.56;4819167;28;19921;-91
2023/07/22 00:31:35;;;;;;;;;;;;;;;-145.06;100.00;60892.56;4833367;28;19992;-91
2023/07/22 00:34:14;;;;;;;;;;;;;;;-145.06;100.00;60892.56;4849089;28;19922;-91
2023/07/22 00:36:53;;;;;;;;;;;;;;;-145.06;100.00;60892.56;4812995;28;19918;-91
2023/07/22 00:39:36;;;;;;;;;;;;;;;-145.06;100.00;60892.56;4823581;28;20360;-91
2023/07/22 00:42:15;;;;;;;;;;;;;;;-145.06;100.00;60892.56;4819200;28;19918;-90
2023/07/22 00:44:54;;;;;;;;;;;;;;;187.52;100.00;60892.56;4823592;28;19918;-91
2023/07/22 00:47:34;;;;;;;;;;;;;;;-145.06;100.00;60892.56;4824896;28;19956;-92
2023/07/22 00:50:12;;;;;;;;;;;;;;;-145.06;100.00;60892.56;4838528;28;19949;-90
2023/07/22 00:52:52;;;;;;;;;;;;;;;-145.06;100.00;60892.56;4852234;28;19945;-91
2023/07/22 00:55:32;;;;;;;;;;;;;;;-145.06;100.00;60892.56;4825345;28;19964;-91
2023/07/22 00:58:11;;;;;;;;;;;;;;;-145.06;100.00;60892.56;4819204;28;19977;-91
2023/07/22 01:01:07;;;;;;;;;;;;;;;;;;;;;
2023/07/22 01:03:46;;;;;;;;;;;;;;;-145.06;100.00;60892.56;4822291;28;20127;-91
2023/07/22 01:06:27;;;;;;;;;;;;;;;-145.06;100.00;60892.56;4847924;28;20214;-90
2023/07/22 01:09:09;;;;;;;;;;;;;;;-145.06;100.00;60892.56;4820165;28;19944;-91
2023/07/22 01:11:48;;;;;;;;;;;;;;;-145.06;100.00;60892.56;4804921;28;19922;-89
2023/07/22 01:14:27;;;;;;;;;;;;;;;-145.06;100.00;60892.56;4825524;28;19914;-89
2023/07/22 01:17:08;;;;;;;;;;;;;;;-145.06;100.00;60892.56;4823412;28;19913;-89
2023/07/22 01:19:47;;;;;;;;;;;;;;;-145.06;100.00;60892.56;4814780;28;20250;-90
2023/07/22 01:22:27;;;;;;;;;;;;;;;-145.06;100.00;60892.56;4818025;28;19930;-90
2023/07/22 01:25:07;;;;;;;;;;;;;;;-145.06;100.00;60892.56;4823888;28;19929;-89
2023/07/22 01:27:46;;;;;;;;;;;;;;;-145.06;100.00;60892.56;4820718;28;19922;-90
2023/07/22 01:30:27;;;;;;;;;;;;;;;-145.06;100.00;60892.56;4812327;28;19913;-90
2023/07/22 01:33:06;;;;;;;;;;;;;;;-145.06;100.00;60892.56;4822701;28;19921;-90
2023/07/22 01:35:45;;;;;;;;;;;;;;;-145.06;100.00;60892.56;4818986;28;20265;-92
2023/07/22 01:38:24;;;;;;;;;;;;;;;-145.06;100.00;60892.56;4823725;28;19914;-90
2023/07/22 01:41:03;;;;;;;;;;;;;;;-145.06;100.00;60892.56;4833899;28;19918;-90
2023/07/22 01:43:42;;;;;;;;;;;;;;;-145.06;100.00;60892.56;4823304;28;19926;-90
2023/07/22 01:46:21;;;;;;;;;;;;;;;-145.06;100.00;60892.56;4837449;28;19960;-91
2023/07/22 01:49:01;;;;;;;;;;;;;;;-145.06;100.00;60892.56;4823607;28;19918;-89
2023/07/22 01:51:40;;;;;;;;;;;;;;;-145.06;100.00;60892.56;4822574;28;19914;-91
2023/07/22 01:54:19;;;;;;;;;;;;;;;-145.06;100.00;60892.56;4823382;28;19918;-90
2023/07/22 01:56:58;;;;;;;;;;;;;;;-145.06;100.00;60892.56;4820753;28;20202;-90
2023/07/22 01:59:40;;;;;;;;;;;;;;;-145.06;100.00;60892.56;4820533;28;19917;-91
2023/07/22 02:02:19;;;;;;;;;;;;;;;-145.06;100.00;60892.56;4821457;28;19922;-90
2023/07/22 02:04:58;;;;;;;;;;;;;;;-145.06;100.00;60892.56;4822744;28;19917;-91
2023/07/22 02:07:38;;;;;;;;;;;;;;;-145.06;100.00;60892.56;4823073;28;20000;-91
2023/07/22 02:10:17;;;;;;;;;;;;;;;-145.06;100.00;60892.56;4834219;28;20413;-90
2023/07/22 02:12:56;;;;;;;;;;;;;;;-145.06;100.00;60892.56;4821538;28;20268;-89
2023/07/22 02:15:35;;;;;;;;;;;;;;;-145.06;100.00;60892.56;4826127;28;19922;-89
2023/07/22 02:18:14;;;;;;;;;;;;;;;-145.06;100.00;60892.56;4824768;28;19940;-90
2023/07/22 02:20:54;;;;;;;;;;;;;;;-145.06;100.00;60892.56;4807599;28;19922;-91
2023/07/22 02:23:33;;;;;;;;;;;;;;;-145.06;100.00;60892.56;4813863;28;19921;-90
2023/07/22 02:26:12;;;;;;;;;;;;;;;-145.06;100.00;60892.56;4821840;28;19952;-90
2023/07/22 02:28:54;;;;;;;;;;;;;;;-145.06;100.00;60892.56;4822397;28;19913;-90
2023/07/22 02:31:33;;;;;;;;;;;;;;;-145.06;100.00;60892.56;4823306;28;20036;-90
2023/07/22 02:34:12;;;;;;;;;;;;;;;-145.06;100.00;60892.56;4823526;28;20273;-90
2023/07/22 02:36:51;;;;;;;;;;;;;;;-145.06;100.00;60892.56;4823124;28;19914;-90
2023/07/22 02:39:30;;;;;;;;;;;;;;;-145.06;100.00;60892.56;4817033;28;19914;-90
2023/07/22 02:42:09;;;;;;;;;;;;;;;-145.06;100.00;60892.56;4822820;28;20008;-89
2023/07/22 02:44:47;;;;;;;;;;;;;;;-145.06;100.00;60892.56;4805170;28;19957;-89
2023/07/22 02:47:26;;;;;;;;;;;;;;;-145.06;100.00;60892.56;4804779;28;19915;-90
2023/07/22 02:50:06;;;;;;;;;;;;;;;-145.06;100.00;60892.56;4815020;28;19917;-90
2023/07/22 02:52:45;;;;;;;;;;;;;;;-145.06;100.00;60892.56;4817615;28;20380;-91
2023/07/22 02:55:24;;;;;;;;;;;;;;;-145.06;100.00;60892.56;4822532;28;19918;-90
2023/07/22 02:58:04;;;;;;;;;;;;;;;-145.06;100.00;60892.56;4822952;28;19914;-90
2023/07/22 03:00:43;;;;;;;;;;;;;;;-145.06;100.00;60892.56;4821400;28;19935;-90
2023/07/22 03:03:23;;;;;;;;;;;;;;;-145.06;100.00;60892.56;4822207;28;19921;-89
2023/07/22 03:06:02;;;;;;;;;;;;;;;-145.06;100.00;60892.56;4822742;28;20368;-90
2023/07/22 03:08:41;;;;;;;;;;;;;;;-145.06;100.00;60892.56;4822644;28;19918;-89
2023/07/22 03:11:22;;;;;;;;;;;;;;;-145.06;100.00;60892.56;4821783;28;19914;-91
2023/07/22 03:14:02;;;;;;;;;;;;;;;-145.06;100.00;60892.56;4811757;28;20317;-89
2023/07/22 03:16:40;;;;;;;;;;;;;;;-145.06;100.00;60892.56;4811822;28;19922;-90
2023/07/22 03:19:20;;;;;;;;;;;;;;;-145.06;100.00;60892.56;4821072;28;19913;-89
2023/07/22 03:22:00;;;;;;;;;;;;;;;-145.06;100.00;60892.56;4805360;28;19926;-90
2023/07/22 03:24:39;;;;;;;;;;;;;;;-145.06;100.00;60892.56;4821525;28;19953;-90
2023/07/22 03:27:18;;;;;;;;;;;;;;;-145.06;100.00;60892.56;4821744;28;19921;-91
2023/07/22 03:29:57;;;;;;;;;;;;;;;-145.06;100.00;60892.56;4811139;28;19918;-89
2023/07/22 03:32:36;;;;;;;;;;;;;;;-145.06;100.00;60892.56;4822012;28;20193;-90
2023/07/22 03:35:17;;;;;;;;;;;;;;;-145.06;100.00;60892.56;4820453;28;20834;-90
2023/07/22 03:37:56;;;;;;;;;;;;;;;-145.06;100.00;60892.56;4820160;28;19914;-91
2023/07/22 03:40:35;;;;;;;;;;;;;;;-145.06;100.00;60892.56;4821661;28;19913;-90
2023/07/22 03:43:14;;;;;;;;;;;;;;;-145.06;100.00;60892.56;4821535;28;19917;-89
2023/07/22 03:45:53;;;;;;;;;;;;;;;-145.06;100.00;60892.56;4822133;28;19914;-89
2023/07/22 03:48:32;;;;;;;;;;;;;;;-145.06;100.00;60892.56;4821786;28;19973;-91
2023/07/22 03:51:14;;;;;;;;;;;;;;;-145.06;100.00;60892.56;4821128;28;19917;-90
2023/07/22 03:53:53;;;;;;;;;;;;;;;-145.06;100.00;60892.56;4831141;28;19953;-91
2023/07/22 03:56:32;;;;;;;;;;;;;;;-145.06;100.00;60892.56;4824996;28;19918;-90
2023/07/22 03:59:11;;;;;;;;;;;;;;;-145.06;100.00;60892.56;4820165;28;19913;-89
2023/07/22 04:01:51;;;;;;;;;;;;;;;-145.06;100.00;60892.56;4821286;28;19918;-92
2023/07/22 04:04:30;;;;;;;;;;;;;;;-145.06;100.00;60892.56;4821482;28;19933;-91
2023/07/22 04:07:09;;;;;;;;;;;;;;;-145.06;100.00;60892.56;4820034;28;19985;-91
2023/07/22 04:09:48;;;;;;;;;;;;;;;-145.06;100.00;60892.56;4822412;28;19929;-91
2023/07/22 04:12:26;;;;;;;;;;;;;;;-145.06;100.00;60892.56;4820840;28;19914;-90
2023/07/22 04:15:06;;;;;;;;;;;;;;;-145.06;100.00;60892.56;4822028;28;20344;-90
2023/07/22 04:17:45;;;;;;;;;;;;;;;-145.06;100.00;60892.56;4805007;28;20308;-91
2023/07/22 04:20:24;;;;;;;;;;;;;;;-145.06;100.00;60892.56;4820005;28;20005;-91
2023/07/22 04:23:03;;;;;;;;;;;;;;;-145.06;100.00;60892.56;4825901;28;19917;-92
2023/07/22 04:25:44;;;;;;;;;;;;;;;-145.06;100.00;60892.56;4821341;28;19918;-89
2023/07/22 04:28:23;;;;;;;;;;;;;;;-145.06;100.00;60892.56;4824002;28;19917;-90
2023/07/22 04:31:03;;;;;;;;;;;;;;;-145.06;100.00;60892.56;4825368;28;19918;-91
2023/07/22 04:33:43;;;;;;;;;;;;;;;-145.06;100.00;60892.56;4824050;28;19949;-91
2023/07/22 04:36:22;;;;;;;;;;;;;;;-145.06;100.00;60892.56;4820467;28;19914;-91
2023/07/22 04:39:01;;;;;;;;;;;;;;;-145.06;100.00;60892.56;4824148;28;19914;-91
2023/07/22 04:41:40;;;;;;;;;;;;;;;-145.06;100.00;60892.56;4824158;28;19918;-91
2023/07/22 04:44:19;;;;;;;;;;;;;;;-145.06;100.00;60892.56;4819538;28;19918;-91
2023/07/22 04:46:58;;;;;;;;;;;;;;;-145.06;100.00;60892.56;4823258;28;19917;-91
2023/07/22 04:49:37;;;;;;;;;;;;;;;-145.06;100.00;60892.56;4823409;28;19918;-91
2023/07/22 04:52:17;;;;;;;;;;;;;;;-145.06;100.00;60892.56;4823143;28;19913;-92
2023/07/22 04:54:56;;;;;;;;;;;;;;;-145.06;100.00;60892.56;4825094;28;20376;-88
2023/07/22 04:57:35;;;;;;;;;;;;;;;-145.06;100.00;60892.56;4825081;28;19918;-90
2023/07/22 05:00:16;;;;;;;;;;;;;;;-145.06;100.00;60892.56;4805892;28;19918;-90
2023/07/22 05:02:56;;;;;;;;;;;;;;;-145.06;100.00;60892.56;4825177;28;20029;-90
2023/07/22 05:05:36;;;;;;;;;;;;;;;-145.06;100.00;60892.56;4823736;28;20016;-90
2023/07/22 05:08:15;;;;;;;;;;;;;;;-145.06;100.00;60892.56;4824664;28;19918;-90
2023/07/22 05:10:54;;;;;;;;;;;;;;;-145.06;100.00;60892.56;4824921;28;19917;-90
2023/07/22 05:13:33;;;;;;;;;;;;;;;-145.06;100.00;60892.56;4819728;28;19918;-90
2023/07/22 05:16:11;;;;;;;;;;;;;;;-145.06;100.00;60892.56;4824139;28;19914;-91
2023/07/22 05:18:51;;;;;;;;;;;;;;;-145.06;100.00;60892.56;4837538;28;20012;-89
2023/07/22 05:21:30;;;;;;;;;;;;;;;-145.06;100.00;60892.56;4810726;28;19922;-91
2023/07/22 05:24:09;;;;;;;;;;;;;;;-145.06;100.00;60892.56;4808293;28;19914;-90
2023/07/22 05:26:48;;;;;;;;;;;;;;;-145.06;100.00;60892.56;4823059;28;20044;-89
2023/07/22 05:29:29;;;;;;;;;;;;;;;-145.06;100.00;60892.56;4822932;28;20277;-90
2023/07/22 05:32:09;;;;;;;;;;;;;;;-145.06;100.00;60892.56;4824310;28;19965;-90
2023/07/22 05:34:48;;;;;;;;;;;;;;;-145.06;100.00;60892.56;4821454;28;19917;-91
2023/07/22 05:37:27;;;;;;;;;;;;;;;-145.06;100.00;60892.56;4823133;28;19922;-91
2023/07/22 05:40:07;;;;;;;;;;;;;;;-145.06;100.00;60892.56;4825618;28;19914;-92
2023/07/22 05:42:46;;;;;;;;;;;;;;;-145.06;100.00;60892.56;4832724;28;19921;-91
2023/07/22 05:45:25;;;;;;;;;;;;;;;-145.06;100.00;60892.56;4837043;28;19961;-90
2023/07/22 05:48:07;;;;;;;;;;;;;;;-145.06;100.00;60892.56;4832849;28;19914;-93
2023/07/22 05:50:47;;;;;;;;;;;;;;;-145.06;100.00;60892.56;4838671;28;19977;-94
2023/07/22 05:53:29;;;;;;;;;;;;;;;-145.06;100.00;60892.56;4827930;28;19922;-93
2023/07/22 05:56:11;;;;;;;;;;;;;;;-145.06;100.00;60892.56;4839676;28;20435;-93
2023/07/22 05:58:50;;;;;;;;;;;;;;;-145.06;100.00;60892.56;4841642;28;19910;-92
2023/07/22 06:01:31;;;;;;;;;;;;;;;-145.06;100.00;60892.56;4798438;28;19966;-93
2023/07/22 06:04:12;;;;;;;;;;;;;;;-145.06;100.00;60892.56;4832309;28;19918;-92
2023/07/22 06:06:52;;;;;;;;;;;;;;;-145.06;100.00;60892.56;4828624;28;19914;-91
2023/07/22 06:09:32;;;;;;;;;;;;;;;-145.06;100.00;60892.56;4821499;28;19914;-92
2023/07/22 06:12:21;;;;;;;;;;;;;;;;;;;;;
2023/07/22 06:15:03;;;;;;;;;;;;;;;-145.06;100.00;60892.56;4843839;28;20158;-92
2023/07/22 06:17:44;;;;;;;;;;;;;;;-145.06;100.00;60892.56;4829745;28;19926;-93
2023/07/22 06:20:24;;;;;;;;;;;;;;;-145.06;100.00;60892.56;4830545;28;19918;-92
2023/07/22 06:23:03;;;;;;;;;;;;;;;-145.06;100.00;60892.56;4829140;28;19922;-92
2023/07/22 06:25:42;;;;;;;;;;;;;;;-145.06;100.00;60892.56;4829341;28;19956;-92
2023/07/22 06:28:21;;;;;;;;;;;;;;;-145.06;100.00;60892.56;4834375;28;19921;-91
2023/07/22 06:31:00;;;;;;;;;;;;;;;-145.06;100.00;60892.56;4841290;28;19922;-93
2023/07/22 06:33:42;;;;;;;;;;;;;;;-145.06;100.00;60892.56;4830136;28;19922;-92
2023/07/22 06:36:24;;;;;;;;;;;;;;;15.62;100.00;60892.56;4826045;28;19914;-92
2023/07/22 06:39:09;;;;;;;;;;;;;;;15.70;100.00;60892.56;4825219;28;19957;-93
2023/07/22 06:41:51;;;;;;;;;;;;;;;15.80;100.00;60892.56;4809760;28;20352;-92
2023/07/22 06:44:30;;;;;;;;;;;;;;;-145.06;100.00;60892.56;4811407;28;19914;-92
2023/07/22 06:47:50;;;;;;;;;;;;;;;;;;;;;
2023/07/22 06:50:29;;;;;;;;;;;;;;;-145.06;100.00;60892.56;4828186;28;19918;-91
2023/07/22 06:53:09;;;;;;;;;;;;;;;-145.06;100.00;60892.56;4824053;28;20404;-90
2023/07/22 06:55:52;;;;;;;;;;;;;;;-145.06;100.00;60892.56;4827121;28;19921;-92
2023/07/22 06:58:33;;;;;;;;;;;;;;;-145.06;100.00;60892.56;4828486;28;20292;-92
2023/07/22 07:01:38;;;;;;;;;;;;;;;-145.06;100.00;60892.56;4822180;28;19918;-92
2023/07/22 07:04:28;;;;;;;;;;;;;;;-145.06;100.00;60892.56;4822729;28;19922;-92
2023/07/22 07:07:12;;;;;;;;;;;;;;;21.08;100.00;60892.56;4837547;28;19914;-91
2023/07/22 07:09:54;;;;;;;;;;;;;;;-145.06;100.00;60892.56;4824815;28;19945;-93
2023/07/22 07:59:34;;;;;;;;;;;;;;;-145.06;100.00;60892.56;5020094;23;20303;-92
2023/07/22 08:02:13;;;;;;;;;;;;;;;-145.06;100.00;60892.56;4844316;28;19925;-92
2023/07/22 08:04:54;;;;;;;;;;;;;;;-145.06;100.00;60892.56;4822694;28;20606;-91
2023/07/22 08:11:09;;;;;;;;;;;;;;;-145.06;100.00;60892.56;4842775;28;19917;-91
2023/07/22 08:13:51;;;;;;;;;;;;;;;-145.06;100.00;60892.56;4829552;28;19921;-89
2023/07/22 08:16:39;;;;;;;;;;;;;;;-145.06;100.00;60892.56;4824111;28;19921;-91
2023/07/22 08:19:19;;;;;;;;;;;;;;;-145.06;100.00;60892.56;4826564;28;19965;-92
2023/07/22 08:22:07;;;;;;;;;;;;;;;-145.06;100.00;60892.56;4827180;28;19933;-90
2023/07/22 08:24:58;;;;;;;;;;;;;;;-145.06;100.00;60892.56;4830723;28;19918;-92
2023/07/22 08:27:37;;;;;;;;;;;;;;;-145.06;100.00;60892.56;4826448;28;19921;-91
2023/07/22 08:30:19;;;;;;;;;;;;;;;-145.06;100.00;60892.56;4846737;28;19917;-90
2023/07/22 08:33:04;;;;;;;;;;;;;;;-145.06;100.00;60892.56;4838176;28;20320;-92
2023/07/22 08:35:45;;;;;;;;;;;;;;;-145.06;100.00;60892.56;4827261;28;19918;-92
2023/07/22 08:38:33;;;;;;;;;;;;;;;-145.06;100.00;60892.56;4824757;28;19985;-91
2023/07/22 08:41:50;;;;;;;;;;;;;;;-145.06;100.00;60892.56;4830055;28;19921;-92
2023/07/22 08:44:48;;;;;;;;;;;;;;;-145.06;100.00;60892.56;4804595;28;19922;-92
2023/07/22 08:47:34;;;;;;;;;;;;;;;-145.06;100.00;60892.56;4841102;28;19980;-92
2023/07/22 08:50:40;;;;;;;;;;;;;;;;;;;;;
2023/07/22 08:53:19;;;;;;;;;;;;;;;-145.06;100.00;60892.56;4852239;28;19926;-92
2023/07/22 08:56:01;;;;;;;;;;;;;;;-145.06;100.00;60892.56;4828706;28;19918;-91
2023/07/22 08:59:35;;;;;;;;;;;;;;;;;;;;;
2023/07/22 09:02:14;;;;;;;;;;;;;;;-145.06;100.00;60892.56;4777795;28;19927;-93
2023/07/22 09:04:56;;;;;;;;;;;;;;;-145.06;100.00;60892.56;4763898;29;19927;-93
2023/07/22 09:07:43;;;;;;;;;;;;;;;-145.06;100.00;60892.56;4816902;28;20260;-93
2023/07/22 09:10:27;;;;;;;;;;;;;;;-145.06;100.00;60892.56;4830360;28;20399;-91
2023/07/22 09:13:09;;;;;;;;;;;;;;;-145.06;100.00;60892.56;4829229;28;19917;-90
2023/07/22 09:19:39;;;;;;;;;;;;;;;-145.06;100.00;60892.56;4822625;23;19928;-94
2023/07/22 09:33:02;;;;;;;;;;;;;;;;;;;;;
2023/07/22 17:04:59;;;;;;;;;;;;;;;-145.06;100.00;60892.56;5033285;23;20481;-93
2023/07/22 17:07:53;;;;;;;;;;;;;;;-145.06;100.00;60892.56;4740871;29;19919;-93
2023/07/22 17:14:15;;;;;;;;;;;;;;;-145.06;100.00;60892.56;4705683;29;19920;-93
2023/07/22 17:17:32;;;;;;;;;;;;;;;;;;;;;
2023/07/22 17:20:14;;;;;;;;;;;;;;;-145.06;100.00;60892.56;4692972;29;20175;-93
2023/07/22 17:22:53;;;;;;;;;;;;;;;-145.06;100.00;60892.56;4708179;29;19987;-94
2023/07/22 17:31:39;;;;;;;;;;;;;;;-145.06;100.00;60892.56;5728503;23;19918;-93
2023/07/22 17:34:27;;;;;;;;;;;;;;;-145.06;100.00;60892.56;4743214;29;19934;-94
2023/07/22 17:37:14;;;;;;;;;;;;;;;-145.06;100.00;60892.56;4754586;29;19919;-94
2023/07/22 17:40:48;;;;;;;;;;;;;;;;;;;;;
2023/07/22 17:47:41;;;;;;;;;;;;;;;-145.06;100.00;60892.56;4650178;29;19977;-93
2023/07/22 17:50:24;;;;;;;;;;;;;;;-145.06;100.00;60892.56;4614199;30;19917;-93
2023/07/22 17:53:11;;;;;;;;;;;;;;;-145.06;100.00;60892.56;4698695;29;19920;-93
2023/07/22 17:56:19;;;;;;;;;;;;;;;-145.06;100.00;60892.56;4733765;29;19983;-93
2023/07/22 17:59:18;;;;;;;;;;;;;;;-145.06;100.00;60892.56;4714961;29;19919;-92
2023/07/22 18:02:02;;;;;;;;;;;;;;;-145.06;100.00;60892.56;4696949;29;19916;-93
2023/07/22 18:04:41;;;;;;;;;;;;;;;-145.06;100.00;60892.56;4695391;29;19963;-93
2023/07/22 18:07:52;;;;;;;;;;;;;;;-145.06;100.00;60892.56;4715288;29;19919;-93
2023/07/22 18:10:32;;;;;;;;;;;;;;;-145.06;100.00;60892.56;4694743;29;19917;-93
2023/07/22 18:13:16;;;;;;;;;;;;;;;-145.06;100.00;60892.56;4726257;29;19916;-94
2023/07/22 18:15:58;;;;;;;;;;;;;;;-145.06;100.00;60892.56;4712461;29;19959;-94
2023/07/22 18:18:41;;;;;;;;;;;;;;;-145.06;100.00;60892.56;4715225;29;19916;-94
2023/07/22 18:21:27;;;;;;;;;;;;;;;-145.06;100.00;60892.56;4713742;29;19920;-93
2023/07/22 18:24:08;;;;;;;;;;;;;;;-145.06;100.00;60892.56;4715867;29;20011;-93
2023/07/22 18:27:14;;;;;;;;;;;;;;;-145.06;100.00;60892.56;4713579;29;19923;-94
2023/07/22 18:29:59;;;;;;;;;;;;;;;-145.06;100.00;60892.56;4707257;29;20014;-93
2023/07/22 18:33:16;;;;;;;;;;;;;;;-145.06;100.00;60892.56;4713154;29;19916;-94
2023/07/22 18:36:13;;;;;;;;;;;;;;;-145.06;100.00;60892.56;4713069;29;19924;-93
2023/07/22 18:39:07;;;;;;;;;;;;;;;-145.06;100.00;60892.56;4712415;29;19912;-93
2023/07/22 18:42:08;;;;;;;;;;;;;;;-145.06;100.00;60892.56;4712859;29;19919;-93
2023/07/22 18:44:58;;;;;;;;;;;;;;;-145.06;100.00;60892.56;4726364;29;19919;-93
2023/07/22 18:47:53;;;;;;;;;;;;;;;-145.06;100.00;60892.56;4726101;29;19916;-93
2023/07/22 18:50:36;;;;;;;;;;;;;;;-145.06;100.00;60892.56;4717906;29;20198;-94
2023/07/22 18:53:19;;;;;;;;;;;;;;;-145.06;100.00;60892.56;4725333;29;19916;-94
2023/07/22 18:56:01;;;;;;;;;;;;;;;-145.06;100.00;60892.56;4712863;29;19915;-93
2023/07/22 18:58:54;;;;;;;;;;;;;;;;;;;;;
2023/07/22 19:01:39;;;;;;;;;;;;;;;-145.06;100.00;60892.56;4713398;29;19923;-92
2023/07/22 19:04:20;;;;;;;;;;;;;;;-145.06;100.00;60892.56;4707775;29;19924;-92
2023/07/22 19:07:02;;;;;;;;;;;;;;;-145.06;100.00;60892.56;4717344;29;19920;-93
2023/07/22 19:09:44;;;;;;;;;;;;;;;-145.06;100.00;60892.56;4712707;29;19919;-92
2023/07/22 19:12:34;;;;;;;;;;;;;;;41.86;100.00;60892.56;4711750;29;19924;-92
2023/07/22 19:15:16;;;;;;;;;;;;;;;-145.06;100.00;60892.56;4711421;29;20022;-92
2023/07/22 19:17:55;;;;;;;;;;;;;;;-145.06;100.00;60892.56;4711738;29;19920;-92
2023/07/22 19:23:54;;;;;;;;;;;;;;;-145.06;100.00;60892.56;4702058;29;19971;-91
2023/07/22 19:26:43;;;;;;;;;;;;;;;-145.06;100.00;60892.56;4709333;29;20466;-93
2023/07/22 19:29:34;;;;;;;;;;;;;;;;;;;;;
2023/07/22 19:32:19;;;;;;;;;;;;;;;-145.06;100.00;60892.56;4723953;29;19923;-94
2023/07/22 19:35:31;;;;;;;;;;;;;;;-145.06;100.00;60892.56;5061571;23;19931;-92
2023/07/22 19:38:15;;;;;;;;;;;;;;;-145.06;100.00;60892.56;4739541;29;19919;-91
2023/07/22 19:41:06;;;;;;;;;;;;;;;-145.06;100.00;60892.56;4737550;29;19916;-91
2023/07/22 19:44:01;;;;;;;;;;;;;;;-145.06;100.00;60892.56;4727472;29;19920;-93
2023/07/22 19:46:44;;;;;;;;;;;;;;;-145.06;100.00;60892.56;4713716;29;19915;-92
2023/07/22 19:49:36;;;;;;;;;;;;;;;-145.06;100.00;60892.56;4735042;29;19919;-92
2023/07/22 19:52:23;;;;;;;;;;;;;;;-145.06;100.00;60892.56;4741498;29;19967;-94
2023/07/22 19:55:07;;;;;;;;;;;;;;;-145.06;100.00;60892.56;4732249;29;19920;-94
2023/07/22 19:57:59;;;;;;;;;;;;;;;-145.06;100.00;60892.56;4737927;29;19915;-92
2023/07/22 20:00:49;;;;;;;;;;;;;;;-145.06;100.00;60892.56;4745611;29;19986;-92
2023/07/22 20:03:55;;;;;;;;;;;;;;;-145.06;100.00;60892.56;4751652;29;20383;-94
2023/07/22 20:11:44;;;;;;;;;;;;;;;-145.06;100.00;60892.56;5701172;23;19926;-92
2023/07/22 20:14:23;;;;;;;;;;;;;;;-145.06;100.00;60892.56;4738612;29;19919;-92
2023/07/22 20:17:03;;;;;;;;;;;;;;;-145.06;100.00;60892.56;4752314;29;19915;-93
2023/07/22 20:22:54;;;;;;;;;;;;;;;-145.06;100.00;60892.56;4742205;29;19923;-92
2023/07/22 20:25:42;;;;;;;;;;;;;;;-145.06;100.00;60892.56;4764586;29;19915;-92
2023/07/22 20:28:21;;;;;;;;;;;;;;;-145.06;100.00;60892.56;4754774;29;19915;-93
2023/07/22 20:31:00;;;;;;;;;;;;;;;-145.06;100.00;60892.56;4739804;29;19915;-92
2023/07/22 20:33:45;;;;;;;;;;;;;;;-145.06;100.00;60892.56;4751137;29;19954;-92
2023/07/22 20:36:24;;;;;;;;;;;;;;;-145.06;100.00;60892.56;4717976;29;20262;-91
2023/07/22 20:39:06;;;;;;;;;;;;;;;-145.06;100.00;60892.56;4734930;29;19915;-92
2023/07/22 20:41:45;;;;;;;;;;;;;;;-145.06;100.00;60892.56;4757985;29;19915;-92
2023/07/22 20:44:24;;;;;;;;;;;;;;;-145.06;100.00;60892.56;4761521;29;19919;-92
2023/07/22 20:47:05;;;;;;;;;;;;;;;-145.06;100.00;60892.56;4734749;29;19947;-93
2023/07/22 20:49:44;;;;;;;;;;;;;;;-145.06;100.00;60892.56;4734827;29;20420;-93
2023/07/22 20:52:23;;;;;;;;;;;;;;;-145.06;100.00;60892.56;4726483;29;19916;-92
2023/07/22 20:55:02;;;;;;;;;;;;;;;-145.06;100.00;60892.56;4735764;29;19919;-93
2023/07/22 20:57:41;;;;;;;;;;;;;;;-145.06;100.00;60892.56;4762568;29;19915;-92
2023/07/22 21:00:22;;;;;;;;;;;;;;;-145.06;100.00;60892.56;4758790;29;20234;-92
2023/07/22 21:03:02;;;;;;;;;;;;;;;-145.06;100.00;60892.56;4765105;29;19973;-93
2023/07/22 21:05:41;;;;;;;;;;;;;;;-145.06;100.00;60892.56;4738356;29;19915;-92
2023/07/22 21:08:21;;;;;;;;;;;;;;;-145.06;100.00;60892.56;4746074;29;19919;-92
2023/07/22 21:11:00;;;;;;;;;;;;;;;-145.06;100.00;60892.56;4745121;29;20365;-92
2023/07/22 21:13:39;;;;;;;;;;;;;;;-145.06;100.00;60892.56;4739967;29;19923;-93
2023/07/22 21:16:17;;;;;;;;;;;;;;;-145.06;100.00;60892.56;4738401;29;20370;-93
2023/07/22 21:18:56;;;;;;;;;;;;;;;-145.06;100.00;60892.56;4753001;29;19919;-93
2023/07/22 21:21:38;;;;;;;;;;;;;;;-145.06;100.00;60892.56;4764791;29;20354;-93
2023/07/22 21:24:17;;;;;;;;;;;;;;;-145.06;100.00;60892.56;4738642;29;19923;-94
2023/07/22 21:26:56;;;;;;;;;;;;;;;-145.06;100.00;60892.56;4761931;29;19919;-94
2023/07/22 21:29:35;;;;;;;;;;;;;;;-145.06;100.00;60892.56;4762880;29;20251;-93
2023/07/22 21:32:17;;;;;;;;;;;;;;;-145.06;100.00;60892.56;4774546;29;19950;-93
2023/07/22 21:34:56;;;;;;;;;;;;;;;-145.06;100.00;60892.56;4736607;29;20266;-93
2023/07/22 21:37:35;;;;;;;;;;;;;;;-145.06;100.00;60892.56;4737838;29;19919;-93
2023/07/22 21:40:14;;;;;;;;;;;;;;;-145.06;100.00;60892.56;4733943;29;19920;-93
2023/07/22 21:42:53;;;;;;;;;;;;;;;-145.06;100.00;60892.56;4758815;29;19966;-94
2023/07/22 21:45:33;;;;;;;;;;;;;;;-145.06;100.00;60892.56;4737189;29;19919;-93
2023/07/22 21:48:15;;;;;;;;;;;;;;;-145.06;100.00;60892.56;4738306;29;20293;-92
2023/07/22 21:50:54;;;;;;;;;;;;;;;-145.06;100.00;60892.56;4737072;29;20361;-92
2023/07/22 21:53:33;;;;;;;;;;;;;;;-145.06;100.00;60892.56;4737993;29;20266;-93
2023/07/22 21:56:12;;;;;;;;;;;;;;;-145.06;100.00;60892.56;4759155;29;19966;-92
2023/07/22 21:58:51;;;;;;;;;;;;;;;-145.06;100.00;60892.56;4744970;29;19923;-93
2023/07/22 22:01:30;;;;;;;;;;;;;;;-145.06;100.00;60892.56;4746599;29;20370;-93
2023/07/22 22:04:09;;;;;;;;;;;;;;;-145.06;100.00;60892.56;4736447;29;19938;-93
2023/07/22 22:06:47;;;;;;;;;;;;;;;-145.06;100.00;60892.56;4723869;29;20115;-93
2023/07/22 22:09:26;;;;;;;;;;;;;;;-145.06;100.00;60892.56;4726877;29;19923;-92
2023/07/22 22:12:06;;;;;;;;;;;;;;;-145.06;100.00;60892.56;4763502;29;19919;-92
2023/07/22 22:14:44;;;;;;;;;;;;;;;-145.06;100.00;60892.56;4763858;29;19946;-93
2023/07/22 22:17:23;;;;;;;;;;;;;;;-145.06;100.00;60892.56;4764188;29;19915;-93
2023/07/22 22:20:04;;;;;;;;;;;;;;;-145.06;100.00;60892.56;4764038;29;19951;-93
2023/07/22 22:22:43;;;;;;;;;;;;;;;-145.06;100.00;60892.56;4737158;29;19919;-93
2023/07/22 22:25:22;;;;;;;;;;;;;;;-145.06;100.00;60892.56;4736142;29;19919;-93
2023/07/22 22:28:04;;;;;;;;;;;;;;;-145.06;100.00;60892.56;4737562;29;19915;-95
2023/07/22 22:30:43;;;;;;;;;;;;;;;-145.06;100.00;60892.56;4766584;29;19993;-94
2023/07/22 22:33:24;;;;;;;;;;;;;;;-145.06;100.00;60892.56;4759173;29;19958;-93
2023/07/22 22:36:03;;;;;;;;;;;;;;;-145.06;100.00;60892.56;4735303;29;19963;-92
2023/07/22 22:38:42;;;;;;;;;;;;;;;-145.06;100.00;60892.56;4736654;29;19915;-92
2023/07/22 22:41:21;;;;;;;;;;;;;;;-145.06;100.00;60892.56;4732251;29;19919;-93
2023/07/22 22:44:00;;;;;;;;;;;;;;;-145.06;100.00;60892.56;4737627;29;19919;-93
2023/07/22 22:46:39;;;;;;;;;;;;;;;-145.06;100.00;60892.56;4736503;29;19923;-93
2023/07/22 22:49:18;;;;;;;;;;;;;;;-145.06;100.00;60892.56;4735477;29;19914;-92